Time;durP1;ratioP1;P1;durP2;ratioP2;P2;SDS_P1;SDS_P2;PMS_P1;PMS_P2;Temp;Humidity;BMP_temperature;BMP_pressure;BME280_temperature;BME280_humidity;BME280_pressure;Samples;Min_cycle;Max_cycle;Signal;HPM_P1;HPM_P2
2022/05/25 04:01:57;;;;;;;1.47;1.30;;;9.30;96.30;;;;;;5245451;23;20494;-74
2022/05/25 04:04:22;;;;;;;4.90;1.30;;;9.40;96.30;;;;;;4931439;29;20919;-74
2022/05/25 04:06:48;;;;;;;2.40;1.40;;;9.50;96.30;;;;;;4934210;29;20179;-75
2022/05/25 04:09:14;;;;;;;3.20;2.40;;;9.70;96.30;;;;;;4936782;29;20652;-73
2022/05/25 04:11:42;;;;;;;1.20;1.10;;;9.90;96.30;;;;;;4936747;29;20726;-73
2022/05/25 04:14:08;;;;;;;1.40;1.17;;;10.10;96.30;;;;;;4927803;29;20411;-73
2022/05/25 04:16:33;;;;;;;3.20;1.60;;;10.20;96.30;;;;;;4917831;29;20416;-73
2022/05/25 04:18:59;;;;;;;5.33;2.17;;;10.40;96.30;;;;;;4917480;29;20783;-73
2022/05/25 04:21:25;;;;;;;1.97;1.73;;;10.50;96.30;;;;;;4917923;29;20224;-76
2022/05/25 04:23:50;;;;;;;2.60;1.43;;;10.60;96.30;;;;;;4917849;29;20752;-74
2022/05/25 04:26:16;;;;;;;2.90;1.50;;;10.80;96.30;;;;;;4918027;29;20180;-74
2022/05/25 04:28:42;;;;;;;2.10;1.47;;;10.80;96.30;;;;;;4917425;29;20228;-74
2022/05/25 04:39:20;;;;;;;3.13;1.53;;;11.10;96.30;;;;;;6093338;23;20453;-79
2022/05/25 04:41:45;;;;;;;1.60;1.10;;;11.10;96.30;;;;;;4952005;28;20442;-75
2022/05/25 04:44:11;;;;;;;2.53;1.10;;;11.20;96.30;;;;;;4955775;29;20710;-74
2022/05/25 04:46:37;;;;;;;1.10;1.00;;;11.20;96.30;;;;;;4955808;28;20186;-73
2022/05/25 04:49:02;;;;;;;1.33;1.10;;;11.20;96.30;;;;;;4955532;29;20778;-73
2022/05/25 04:51:29;;;;;;;2.27;1.60;;;11.10;96.30;;;;;;4954398;28;20201;-75
2022/05/25 04:53:54;;;;;;;1.47;1.10;;;11.10;96.30;;;;;;4955826;28;20242;-73
2022/05/25 04:59:11;;;;;;;1.67;1.27;;;11.00;96.30;;;;;;4954636;28;20205;-73
2022/05/25 05:01:37;;;;;;;2.27;1.33;;;11.00;96.30;;;;;;4955782;28;20918;-73
2022/05/25 05:04:02;;;;;;;1.20;1.10;;;11.00;96.30;;;;;;4955796;29;20183;-74
2022/05/25 05:06:28;;;;;;;1.73;1.13;;;11.00;96.30;;;;;;4955947;28;20633;-73
2022/05/25 05:08:53;;;;;;;3.60;1.10;;;11.00;96.30;;;;;;4954269;29;20242;-73
2022/05/25 05:11:19;;;;;;;4.23;1.50;;;11.00;96.30;;;;;;4943840;28;20234;-74
2022/05/25 05:13:44;;;;;;;1.70;1.23;;;11.00;96.30;;;;;;4936406;29;20176;-75
2022/05/25 05:16:16;;;;;;;1.60;1.30;;;11.00;96.30;;;;;;4950961;29;20222;-74
2022/05/25 05:18:42;;;;;;;3.73;1.47;;;11.10;96.30;;;;;;4935724;29;20156;-74
2022/05/25 05:21:09;;;;;;;1.87;1.17;;;11.10;96.30;;;;;;4935878;29;20496;-74
2022/05/25 05:23:37;;;;;;;1.40;1.20;;;11.10;96.30;;;;;;4936045;29;20427;-73
2022/05/25 05:26:03;;;;;;;3.43;1.50;;;11.20;96.30;;;;;;4935998;29;20466;-76
2022/05/25 05:28:32;;;;;;;3.20;2.20;;;11.30;96.30;;;;;;4935484;29;20407;-75
2022/05/25 05:30:59;;;;;;;7.40;2.70;;;11.40;96.30;;;;;;4935842;29;20203;-73
2022/05/25 05:33:26;;;;;;;4.00;3.63;;;11.50;96.30;;;;;;4935816;29;21066;-73
2022/05/25 05:36:23;;;;;;;6.87;2.73;;;11.60;96.30;;;;;;4935794;29;20923;-73
2022/05/25 05:39:04;;;;;;;2.47;2.27;;;11.80;96.30;;;;;;4951329;28;20409;-73
2022/05/25 05:41:35;;;;;;;5.73;1.80;;;11.80;96.30;;;;;;4969910;28;20457;-73
2022/05/25 05:44:03;;;;;;;4.33;1.20;;;11.90;96.30;;;;;;4954169;28;20407;-73
2022/05/25 05:46:29;;;;;;;6.03;1.60;;;12.10;96.30;;;;;;4954746;28;20918;-73
2022/05/25 05:48:55;;;;;;;1.50;1.40;;;12.20;96.30;;;;;;4952812;29;20935;-74
2022/05/25 05:51:21;;;;;;;2.70;1.67;;;12.30;96.30;;;;;;4953198;29;20492;-73
2022/05/25 05:53:47;;;;;;;3.00;1.37;;;12.20;96.30;;;;;;4954641;28;20179;-73
2022/05/25 05:56:13;;;;;;;1.40;1.30;;;12.30;96.30;;;;;;4954683;28;20506;-73
2022/05/25 05:58:38;;;;;;;3.53;1.30;;;12.40;96.30;;;;;;4954429;29;20422;-73
2022/05/25 06:01:04;;;;;;;1.83;1.23;;;12.40;96.30;;;;;;4954645;29;20203;-76
2022/05/25 06:03:29;;;;;;;1.03;0.93;;;12.50;96.30;;;;;;4954768;28;20168;-73
2022/05/25 06:05:55;;;;;;;2.33;1.10;;;12.70;96.30;;;;;;4954824;29;20173;-73
2022/05/25 06:08:26;;;;;;;2.80;1.37;;;12.80;96.30;;;;;;4954141;29;20177;-74
2022/05/25 06:10:52;;;;;;;2.60;1.00;;;13.00;96.30;;;;;;4954433;28;20191;-73
2022/05/25 06:13:18;;;;;;;1.67;1.10;;;13.20;96.30;;;;;;4954289;28;20818;-73
2022/05/25 06:21:31;;;;;;;4.80;1.00;;;13.50;96.30;;;;;;4954185;29;20937;-73
2022/05/25 06:23:57;;;;;;;3.00;1.07;;;13.40;96.30;;;;;;4954167;29;20403;-74
2022/05/25 06:26:27;;;;;;;2.60;0.90;;;13.40;96.30;;;;;;4954193;29;20167;-76
2022/05/25 06:28:53;;;;;;;2.20;0.93;;;13.40;96.30;;;;;;4954134;29;20190;-73
2022/05/25 06:31:19;;;;;;;1.70;1.10;;;13.50;96.30;;;;;;4954126;28;20916;-74
2022/05/25 06:33:45;;;;;;;1.10;0.90;;;13.60;96.30;;;;;;4954274;28;20175;-73
2022/05/25 06:36:21;;;;;;;1.00;0.90;;;13.70;96.30;;;;;;4954694;29;20778;-74
2022/05/25 06:38:47;;;;;;;3.70;1.03;;;13.60;96.30;;;;;;4954348;28;20159;-74
2022/05/25 06:41:13;;;;;;;3.07;1.20;;;13.60;96.30;;;;;;4954071;29;20476;-74
2022/05/25 06:43:39;;;;;;;6.00;1.50;;;13.50;96.30;;;;;;4954224;28;20182;-74
2022/05/25 06:46:06;;;;;;;1.90;1.10;;;13.50;96.30;;;;;;4952743;29;20179;-74
2022/05/25 06:48:32;;;;;;;4.83;1.03;;;13.70;96.30;;;;;;4953844;28;20830;-75
2022/05/25 06:50:58;;;;;;;3.17;1.60;;;13.70;96.30;;;;;;4953282;28;20446;-77
2022/05/25 06:53:24;;;;;;;1.97;1.23;;;13.80;96.30;;;;;;4954507;28;20183;-74
2022/05/25 06:55:49;;;;;;;3.73;1.20;;;13.70;96.30;;;;;;4957933;28;20175;-73
2022/05/25 06:58:14;;;;;;;1.30;1.07;;;13.60;96.30;;;;;;4957891;28;20183;-73
2022/05/25 07:00:40;;;;;;;7.57;1.60;;;13.50;96.30;;;;;;4957729;28;20242;-77
2022/05/25 07:03:09;;;;;;;1.87;1.00;;;13.40;96.30;;;;;;4957990;29;20241;-74
2022/05/25 07:05:35;;;;;;;1.80;1.23;;;13.20;96.30;;;;;;4957969;28;20253;-76
2022/05/25 07:08:00;;;;;;;3.10;1.10;;;13.20;96.30;;;;;;4956234;29;20554;-79
2022/05/25 07:10:26;;;;;;;5.40;1.30;;;13.10;96.30;;;;;;4957618;28;20245;-76
2022/05/25 07:12:52;;;;;;;1.10;1.00;;;13.20;96.30;;;;;;4957793;29;20178;-76
2022/05/25 07:15:18;;;;;;;2.77;1.03;;;13.20;96.30;;;;;;4957716;29;20410;-76
2022/05/25 07:17:43;;;;;;;1.30;1.07;;;13.20;96.30;;;;;;4957328;29;20261;-77
2022/05/25 07:20:09;;;;;;;1.80;1.03;;;13.30;96.30;;;;;;4957314;29;20203;-79
2022/05/25 07:22:36;;;;;;;3.17;1.00;;;13.20;96.30;;;;;;4957677;28;20740;-78
2022/05/25 07:25:01;;;;;;;1.40;1.17;;;13.20;96.30;;;;;;4957656;28;20419;-77
2022/05/25 07:27:27;;;;;;;2.40;1.10;;;13.00;96.30;;;;;;4957205;28;20418;-77
2022/05/25 07:29:52;;;;;;;1.50;0.90;;;13.00;96.30;;;;;;4972435;28;20238;-75
2022/05/25 07:32:20;;;;;;;2.93;1.20;;;13.00;96.30;;;;;;4957211;28;20207;-77
2022/05/25 07:35:00;;;;;;;1.80;1.20;;;13.00;96.30;;;;;;4957162;28;20175;-78
2022/05/25 07:37:32;;;;;;;1.60;1.30;;;13.00;96.30;;;;;;4955956;29;20850;-79
2022/05/25 07:40:02;;;;;;;3.77;1.30;;;13.00;96.30;;;;;;4956986;28;20496;-75
2022/05/25 07:42:30;;;;;;;2.10;1.20;;;13.20;96.30;;;;;;4956927;28;20430;-75
2022/05/25 07:44:58;;;;;;;1.53;1.03;;;13.20;96.30;;;;;;4957164;28;20438;-75
2022/05/25 07:47:25;;;;;;;2.93;1.07;;;13.20;96.30;;;;;;4956958;28;20413;-80
2022/05/25 07:49:51;;;;;;;2.30;1.20;;;13.30;96.30;;;;;;4956921;28;20452;-76
2022/05/25 07:52:18;;;;;;;1.60;1.20;;;13.30;96.30;;;;;;4956803;28;20945;-76
2022/05/25 07:54:44;;;;;;;1.23;1.00;;;13.30;96.30;;;;;;4956835;28;20639;-79
2022/05/25 07:57:11;;;;;;;4.80;1.20;;;13.50;96.30;;;;;;4957005;28;20872;-79
2022/05/25 07:59:37;;;;;;;6.73;2.47;;;13.60;96.30;;;;;;4956473;28;20485;-76
2022/05/25 08:07:39;;;;;;;2.70;1.50;;;13.90;96.30;;;;;;4956028;29;20450;-76
2022/05/25 08:10:11;;;;;;;2.07;1.10;;;13.90;96.30;;;;;;4956586;28;20422;-75
2022/05/25 08:12:38;;;;;;;2.60;1.10;;;13.90;96.30;;;;;;4956405;28;20276;-78
2022/05/25 08:15:06;;;;;;;6.10;3.90;;;13.90;96.30;;;;;;4956463;28;20415;-75
2022/05/25 08:17:32;;;;;;;6.33;4.43;;;13.80;96.30;;;;;;4956135;28;20418;-74
2022/05/25 08:19:57;;;;;;;8.30;5.80;;;13.70;96.30;;;;;;4958646;28;20477;-74
2022/05/25 08:22:24;;;;;;;2.57;1.40;;;13.60;96.30;;;;;;4975353;28;20244;-76
2022/05/25 08:24:49;;;;;;;2.00;1.23;;;13.70;96.30;;;;;;4974765;28;20513;-74
2022/05/25 08:27:15;;;;;;;1.77;1.30;;;13.60;96.30;;;;;;4956192;28;20897;-76
2022/05/25 08:29:40;;;;;;;2.40;1.43;;;13.50;96.30;;;;;;4956002;28;20187;-75
2022/05/25 08:32:06;;;;;;;6.17;3.83;;;13.50;96.30;;;;;;4956022;28;20222;-74
2022/05/25 08:34:31;;;;;;;13.50;6.10;;;13.60;96.30;;;;;;4954818;29;20175;-75
2022/05/25 08:36:57;;;;;;;3.30;1.40;;;13.60;96.30;;;;;;4956067;28;20182;-74
2022/05/25 08:39:23;;;;;;;1.17;1.07;;;13.70;96.30;;;;;;4955686;28;20218;-75
2022/05/25 08:41:52;;;;;;;1.70;1.20;;;13.70;96.30;;;;;;4955908;28;20202;-75
2022/05/25 08:44:19;;;;;;;1.40;1.00;;;13.80;96.30;;;;;;4954690;29;20182;-74
2022/05/25 08:46:45;;;;;;;1.70;1.27;;;14.00;96.30;;;;;;4955894;28;20434;-74
2022/05/25 08:49:14;;;;;;;2.10;1.20;;;14.00;96.30;;;;;;4955673;28;20449;-75
2022/05/25 08:51:52;;;;;;;4.27;1.87;;;14.10;96.30;;;;;;4955674;28;20560;-76
2022/05/25 08:54:20;;;;;;;2.17;1.03;;;14.40;96.30;;;;;;4955679;28;20410;-75
2022/05/25 08:56:49;;;;;;;2.13;1.20;;;14.70;96.30;;;;;;4955715;28;20418;-75
2022/05/25 08:59:26;;;;;;;2.03;1.20;;;15.00;96.30;;;;;;4968564;28;20452;-73
2022/05/25 09:02:04;;;;;;;4.23;1.57;;;15.10;96.30;;;;;;4973658;28;20456;-73
2022/05/25 09:04:46;;;;;;;2.53;1.70;;;15.20;96.30;;;;;;4958176;28;20445;-73
2022/05/25 09:07:38;;;;;;;2.30;1.03;;;15.30;96.30;;;;;;4955519;28;20429;-74
2022/05/25 09:10:05;;;;;;;5.57;1.30;;;15.40;96.30;;;;;;4955547;28;20435;-73
2022/05/25 09:12:42;;;;;;;2.70;1.00;;;15.10;96.30;;;;;;4954055;29;20450;-76
2022/05/25 09:15:16;;;;;;;2.60;1.43;;;15.30;96.30;;;;;;4955383;28;20421;-74
2022/05/25 09:17:46;;;;;;;2.73;1.20;;;15.50;96.30;;;;;;4958412;28;20405;-74
2022/05/25 09:20:17;;;;;;;2.60;1.30;;;15.70;96.30;;;;;;4964777;28;20457;-74
2022/05/25 09:22:44;;;;;;;1.70;0.90;;;16.30;96.30;;;;;;4960100;28;20484;-74
2022/05/25 09:25:12;;;;;;;2.77;1.20;;;17.00;96.30;;;;;;4974421;28;20405;-74
2022/05/25 09:27:45;;;;;;;1.63;1.07;;;17.20;96.30;;;;;;4974046;28;20277;-74
2022/05/25 09:30:12;;;;;;;1.23;1.07;;;17.20;96.30;;;;;;4974399;28;20410;-77
2022/05/25 09:32:48;;;;;;;3.03;1.00;;;17.40;96.30;;;;;;4973024;28;20433;-74
2022/05/25 09:35:36;;;;;;;1.10;0.80;;;17.30;96.30;;;;;;4973122;28;20420;-77
2022/05/25 09:38:29;;;;;;;2.00;1.10;;;17.10;96.30;;;;;;4970356;28;20910;-74
2022/05/25 09:40:55;;;;;;;3.17;1.10;;;17.30;96.30;;;;;;4954740;28;20493;-74
2022/05/25 09:43:24;;;;;;;1.97;1.10;;;17.50;96.30;;;;;;4954482;28;20427;-78
2022/05/25 09:45:56;;;;;;;3.10;0.87;;;17.30;96.30;;;;;;4960382;28;20269;-76
2022/05/25 09:48:22;;;;;;;2.90;0.90;;;17.30;96.30;;;;;;4969606;28;20432;-76
2022/05/25 09:51:04;;;;;;;1.90;0.90;;;17.00;96.30;;;;;;4972639;28;20480;-75
2022/05/25 09:53:42;;;;;;;2.47;1.00;;;17.20;96.30;;;;;;4977173;28;20410;-76
2022/05/25 09:56:31;;;;;;;3.17;1.30;;;18.30;96.30;;;;;;4979004;28;20420;-77
2022/05/25 09:59:02;;;;;;;1.70;0.90;;;18.90;96.30;;;;;;4971809;28;20446;-76
2022/05/25 10:01:40;;;;;;;4.50;1.00;;;19.10;96.30;;;;;;4963175;28;20985;-77
2022/05/25 10:04:09;;;;;;;1.70;1.03;;;18.90;96.30;;;;;;4953174;28;20423;-77
2022/05/25 10:06:48;;;;;;;1.10;0.87;;;18.90;96.30;;;;;;4953876;28;20421;-77
2022/05/25 10:09:19;;;;;;;1.50;0.90;;;18.70;96.30;;;;;;4973425;28;20413;-76
2022/05/25 10:11:50;;;;;;;1.77;1.33;;;19.10;96.30;;;;;;4956422;28;20538;-76
2022/05/25 10:14:26;;;;;;;1.10;0.90;;;19.80;96.30;;;;;;4954403;28;20778;-78
2022/05/25 10:16:57;;;;;;;1.37;0.83;;;21.00;96.30;;;;;;4954335;28;20446;-78
2022/05/25 10:19:23;;;;;;;1.57;0.80;;;21.70;96.30;;;;;;4954035;28;20411;-77
2022/05/25 10:21:55;;;;;;;4.93;1.77;;;21.40;94.70;;;;;;4954129;28;20855;-77
2022/05/25 10:24:41;;;;;;;3.17;1.00;;;22.10;94.00;;;;;;4954295;28;20221;-77
2022/05/25 10:27:23;;;;;;;1.83;1.00;;;21.80;91.10;;;;;;4954261;28;20438;-76
2022/05/25 12:00:53;;;;;;;1.50;0.87;;;24.00;72.50;;;;;;5218891;23;20493;-76
2022/05/25 12:03:31;;;;;;;1.33;0.80;;;23.90;74.00;;;;;;4937714;29;20753;-75
2022/05/25 12:06:16;;;;;;;1.20;0.77;;;23.60;73.80;;;;;;4937658;29;20403;-75
2022/05/25 12:09:00;;;;;;;6.00;1.00;;;22.20;73.10;;;;;;4937570;29;20427;-77
2022/05/25 12:11:50;;;;;;;1.57;1.00;;;22.40;79.00;;;;;;4937563;29;20431;-76
2022/05/25 12:14:36;;;;;;;1.30;0.80;;;23.10;75.00;;;;;;4920487;29;20510;-77
2022/05/25 12:17:32;;;;;;;1.73;0.90;;;22.90;74.20;;;;;;4937605;29;20459;-75
2022/05/25 12:20:00;;;;;;;1.57;0.80;;;22.30;76.00;;;;;;4903576;29;20515;-75
2022/05/25 12:22:32;;;;;;;6.77;0.80;;;23.30;76.80;;;;;;4937284;29;20494;-75
2022/05/25 12:25:04;;;;;;;2.97;0.70;;;24.00;71.60;;;;;;4936977;29;20404;-75
2022/05/25 12:27:41;;;;;;;7.23;1.23;;;24.20;74.50;;;;;;4937042;29;20457;-75
2022/05/25 12:30:17;;;;;;;1.20;0.80;;;23.90;71.50;;;;;;4936980;29;20798;-76
2022/05/25 12:32:44;;;;;;;2.47;0.87;;;23.60;74.30;;;;;;4937081;29;20411;-75
2022/05/25 12:35:11;;;;;;;2.80;0.80;;;23.70;73.10;;;;;;4936632;29;20829;-76
2022/05/25 12:37:44;;;;;;;2.53;1.00;;;23.80;77.40;;;;;;4936524;29;20421;-75
2022/05/25 12:40:13;;;;;;;1.97;0.80;;;23.50;71.80;;;;;;4938317;29;20482;-75
2022/05/25 12:42:42;;;;;;;0.90;0.63;;;23.60;73.30;;;;;;4936678;29;20418;-76
2022/05/25 12:48:30;;;;;;;1.93;0.80;;;24.20;68.40;;;;;;4935882;29;20422;-75
2022/05/25 12:51:07;;;;;;;2.93;0.77;;;23.40;73.80;;;;;;4936601;29;20442;-76
2022/05/25 12:53:37;;;;;;;1.30;0.80;;;23.70;73.80;;;;;;4936338;29;20419;-75
2022/05/25 12:56:16;;;;;;;2.00;0.70;;;23.00;70.50;;;;;;4936696;29;20804;-75
2022/05/25 12:58:47;;;;;;;1.57;0.80;;;21.80;71.00;;;;;;4936639;29;20411;-76
2022/05/25 13:01:12;;;;;;;1.90;0.90;;;22.00;76.00;;;;;;4946276;29;21013;-75
2022/05/25 13:03:45;;;;;;;2.70;0.90;;;23.10;79.20;;;;;;4936937;29;20431;-76
2022/05/25 13:06:12;;;;;;;6.20;0.90;;;23.80;75.30;;;;;;4947477;29;20179;-75
2022/05/25 13:08:47;;;;;;;1.60;0.83;;;24.10;74.80;;;;;;4937138;29;20441;-76
2022/05/25 13:11:43;;;;;;;3.70;1.00;;;23.40;70.20;;;;;;4956680;28;20449;-76
2022/05/25 13:14:16;;;;;;;1.23;0.80;;;22.00;76.60;;;;;;4957219;28;20430;-75
2022/05/25 13:16:41;;;;;;;6.33;0.90;;;22.60;78.00;;;;;;4944074;28;20417;-75
2022/05/25 13:19:17;;;;;;;4.30;1.13;;;22.60;76.40;;;;;;4948712;28;20406;-75
2022/05/25 13:22:09;;;;;;;1.40;0.80;;;23.80;75.40;;;;;;4946424;28;20205;-75
2022/05/25 13:24:55;;;;;;;2.30;0.90;;;23.70;68.90;;;;;;4929847;29;20458;-76
2022/05/25 13:27:35;;;;;;;4.00;0.90;;;23.50;72.90;;;;;;4954111;28;20497;-77
2022/05/25 13:30:13;;;;;;;6.33;0.90;;;23.30;74.80;;;;;;4966196;28;20492;-76
2022/05/25 13:32:52;;;;;;;2.47;0.90;;;22.40;74.00;;;;;;4962666;28;20434;-75
2022/05/25 13:35:20;;;;;;;8.60;1.20;;;21.90;75.10;;;;;;4964943;28;20407;-76
2022/05/25 13:37:51;;;;;;;0.90;0.80;;;21.80;79.90;;;;;;4960056;28;20410;-74
2022/05/25 13:40:18;;;;;;;4.13;1.40;;;22.10;79.10;;;;;;4954826;29;20493;-75
2022/05/25 13:42:46;;;;;;;5.53;0.80;;;22.80;77.80;;;;;;4961902;28;20413;-76
2022/05/25 13:45:23;;;;;;;2.93;0.90;;;22.80;76.80;;;;;;4964593;28;20414;-76
2022/05/25 13:47:56;;;;;;;1.37;0.90;;;22.80;72.60;;;;;;4962527;28;20419;-74
2022/05/25 13:50:44;;;;;;;1.80;1.20;;;22.90;75.00;;;;;;4955252;29;20441;-76
2022/05/25 13:53:13;;;;;;;1.57;0.80;;;23.00;72.60;;;;;;4952610;28;20521;-75
2022/05/25 13:55:42;;;;;;;8.33;1.07;;;22.70;73.40;;;;;;4973602;28;20402;-75
2022/05/25 13:58:16;;;;;;;11.57;1.20;;;22.30;74.10;;;;;;4971621;28;20753;-75
2022/05/25 14:00:46;;;;;;;1.97;0.80;;;22.00;73.90;;;;;;4954173;29;21052;-75
2022/05/25 14:03:18;;;;;;;2.37;1.00;;;22.00;75.10;;;;;;4954135;28;20406;-77
2022/05/25 14:05:43;;;;;;;1.10;0.70;;;21.90;77.40;;;;;;4954771;29;20410;-76
2022/05/25 14:08:16;;;;;;;2.83;0.90;;;22.00;74.70;;;;;;4962166;28;20456;-77
2022/05/25 14:10:57;;;;;;;12.67;1.20;;;22.10;73.50;;;;;;4967768;28;20314;-79
2022/05/25 14:13:34;;;;;;;2.20;0.70;;;21.50;75.30;;;;;;4935709;29;20423;-77
2022/05/25 14:16:04;;;;;;;1.50;1.03;;;21.70;78.60;;;;;;4945824;28;20508;-75
2022/05/25 14:18:40;;;;;;;2.37;0.80;;;21.70;77.70;;;;;;4954313;28;20913;-75
2022/05/25 14:21:08;;;;;;;2.93;0.97;;;22.10;79.60;;;;;;4951407;29;20472;-74
2022/05/25 14:23:34;;;;;;;4.10;0.80;;;22.00;76.40;;;;;;4956875;28;20849;-76
2022/05/25 14:26:04;;;;;;;2.33;0.80;;;21.60;77.60;;;;;;4965272;28;20783;-75
2022/05/25 14:28:38;;;;;;;3.40;0.93;;;22.00;80.30;;;;;;4954257;28;20411;-76
2022/05/25 14:31:06;;;;;;;2.50;0.80;;;22.00;76.70;;;;;;4944138;28;20817;-76
2022/05/25 14:33:33;;;;;;;5.00;0.90;;;21.60;77.30;;;;;;4939465;29;20422;-75
2022/05/25 14:36:02;;;;;;;2.47;1.07;;;21.80;78.00;;;;;;4954579;28;20506;-75
2022/05/25 14:38:37;;;;;;;6.87;1.13;;;22.10;78.10;;;;;;4951062;28;20421;-75
2022/05/25 14:41:39;;;;;;;1.13;0.80;;;22.10;80.20;;;;;;4950476;28;20804;-78
2022/05/25 14:44:04;;;;;;;3.63;0.90;;;22.20;77.70;;;;;;4916292;28;20416;-75
2022/05/25 14:46:36;;;;;;;1.87;0.90;;;22.20;79.00;;;;;;4945225;28;20849;-74
2022/05/25 14:49:03;;;;;;;3.10;0.97;;;22.60;76.80;;;;;;4947239;28;20510;-74
2022/05/25 14:51:34;;;;;;;1.43;0.83;;;22.30;76.20;;;;;;4944826;29;20458;-75
2022/05/25 14:54:09;;;;;;;2.80;1.03;;;21.70;77.30;;;;;;4941029;29;20420;-75
2022/05/25 14:56:34;;;;;;;2.10;0.90;;;21.40;81.30;;;;;;4961308;28;20803;-75
2022/05/25 14:59:00;;;;;;;2.03;0.70;;;20.90;80.90;;;;;;4961653;28;20446;-76
2022/05/25 15:01:34;;;;;;;2.70;1.37;;;20.70;78.90;;;;;;4953732;29;20207;-75
2022/05/25 15:04:10;;;;;;;2.40;0.90;;;20.80;79.80;;;;;;4953813;29;20493;-75
2022/05/25 15:06:41;;;;;;;3.47;1.33;;;20.90;79.90;;;;;;4953576;29;20445;-75
2022/05/25 15:09:10;;;;;;;3.40;0.87;;;21.30;81.70;;;;;;4951666;29;21126;-75
2022/05/25 15:11:43;;;;;;;3.00;0.90;;;21.40;79.90;;;;;;4949013;29;20458;-75
2022/05/25 15:20:11;;;;;;;3.77;0.80;;;22.00;76.70;;;;;;4938174;29;20514;-77
2022/05/25 15:22:44;;;;;;;1.20;0.80;;;22.30;75.60;;;;;;4938175;29;20431;-78
2022/05/25 15:25:16;;;;;;;1.80;0.97;;;22.40;78.90;;;;;;4938192;29;20414;-78
2022/05/25 15:27:56;;;;;;;2.13;1.00;;;22.60;77.10;;;;;;4940926;29;20427;-78
2022/05/25 15:30:28;;;;;;;10.83;1.30;;;23.00;76.70;;;;;;4957034;29;20421;-77
2022/05/25 15:32:54;;;;;;;1.67;0.90;;;22.80;74.30;;;;;;4957195;29;20477;-77
2022/05/25 15:35:20;;;;;;;2.07;1.10;;;22.60;75.70;;;;;;4956996;29;20822;-76
2022/05/25 15:38:12;;;;;;;3.60;0.93;;;22.20;76.80;;;;;;4956995;29;20198;-77
2022/05/25 15:40:43;;;;;;;4.90;0.87;;;21.40;79.00;;;;;;4953140;29;20226;-78
2022/05/25 15:43:10;;;;;;;5.17;0.90;;;21.20;79.00;;;;;;4957031;29;20407;-77
2022/05/25 15:45:38;;;;;;;3.17;0.90;;;20.50;81.00;;;;;;4956897;29;20407;-76
2022/05/25 15:48:06;;;;;;;1.87;0.80;;;20.60;81.30;;;;;;4956446;29;20421;-77
2022/05/25 15:50:38;;;;;;;1.40;0.90;;;20.70;80.30;;;;;;4956740;29;20414;-77
2022/05/25 15:53:08;;;;;;;2.70;1.03;;;20.50;79.20;;;;;;4939484;29;20446;-77
2022/05/25 15:55:34;;;;;;;2.93;0.80;;;20.20;80.40;;;;;;4939545;29;20429;-77
2022/05/25 15:58:00;;;;;;;5.37;1.07;;;20.30;82.10;;;;;;4956482;29;20430;-77
2022/05/25 16:00:26;;;;;;;4.83;0.80;;;20.50;80.00;;;;;;4931663;29;20562;-77
2022/05/25 16:02:56;;;;;;;4.53;0.97;;;20.30;80.20;;;;;;4934785;29;20179;-76
2022/05/25 16:05:23;;;;;;;2.20;0.80;;;20.20;78.70;;;;;;4956601;29;20845;-77
2022/05/25 16:10:35;;;;;;;2.10;0.80;;;20.00;80.10;;;;;;4948569;29;20426;-77
2022/05/25 16:13:01;;;;;;;2.70;0.80;;;19.70;79.20;;;;;;4940776;29;20420;-77
2022/05/25 16:15:28;;;;;;;1.63;0.90;;;19.80;81.30;;;;;;4937304;29;20951;-77
2022/05/25 16:17:54;;;;;;;1.53;0.70;;;20.10;80.70;;;;;;4944991;29;20182;-77
2022/05/25 16:20:19;;;;;;;4.00;1.10;;;20.60;81.90;;;;;;4937995;29;20462;-76
2022/05/25 16:22:47;;;;;;;3.93;0.80;;;20.90;80.10;;;;;;4956342;29;20179;-77
2022/05/25 16:25:20;;;;;;;1.67;0.73;;;20.80;81.00;;;;;;4955962;29;20700;-77
2022/05/25 16:27:47;;;;;;;2.23;0.80;;;20.60;78.90;;;;;;4954446;28;20407;-77
2022/05/25 16:30:13;;;;;;;2.03;0.90;;;20.20;80.50;;;;;;4936396;29;20474;-77
2022/05/25 16:35:17;;;;;;;3.37;0.90;;;19.80;81.30;;;;;;5051282;23;20490;-75
2022/05/25 16:37:44;;;;;;;4.27;0.87;;;19.70;80.70;;;;;;4937018;29;20415;-76
2022/05/25 16:40:11;;;;;;;2.13;0.70;;;19.60;82.40;;;;;;4935085;29;20462;-76
2022/05/25 16:42:37;;;;;;;1.63;0.80;;;19.70;82.60;;;;;;4935542;29;20471;-75
2022/05/25 16:45:09;;;;;;;6.70;0.90;;;19.90;83.30;;;;;;4936744;29;20494;-77
2022/05/25 16:47:35;;;;;;;2.40;0.93;;;20.00;83.00;;;;;;4919229;29;20470;-77
2022/05/25 16:50:06;;;;;;;1.10;0.70;;;20.20;82.20;;;;;;4935523;29;20801;-76
2022/05/25 16:52:32;;;;;;;1.20;0.70;;;20.00;79.10;;;;;;4936670;29;20455;-78
2022/05/25 16:54:58;;;;;;;4.97;0.90;;;20.20;82.00;;;;;;4920387;29;20426;-78
2022/05/25 16:57:24;;;;;;;1.53;0.83;;;20.40;78.60;;;;;;4937896;29;20420;-75
2022/05/25 16:59:50;;;;;;;1.93;0.80;;;20.40;81.60;;;;;;4920431;29;20235;-76
2022/05/25 17:02:16;;;;;;;1.20;0.83;;;20.40;82.00;;;;;;4937005;29;20797;-76
2022/05/25 17:04:42;;;;;;;1.30;0.77;;;20.50;80.50;;;;;;4937318;29;20478;-76
2022/05/25 17:07:07;;;;;;;2.77;0.80;;;20.30;80.70;;;;;;4937215;29;20462;-78
2022/05/25 17:09:33;;;;;;;1.10;0.70;;;20.00;81.80;;;;;;4936847;29;20611;-76
2022/05/25 17:11:59;;;;;;;2.20;0.70;;;19.60;80.20;;;;;;4937117;29;20200;-76
2022/05/25 17:14:26;;;;;;;2.43;0.90;;;19.10;81.80;;;;;;4936767;29;20646;-76
2022/05/25 17:16:53;;;;;;;1.33;1.00;;;18.80;82.00;;;;;;4937877;29;20986;-76
2022/05/25 17:22:04;;;;;;;1.27;0.80;;;18.80;86.10;;;;;;4928356;29;20509;-76
2022/05/25 17:24:30;;;;;;;2.80;0.87;;;18.90;85.20;;;;;;4926549;29;20438;-76
2022/05/25 17:26:56;;;;;;;1.50;0.83;;;18.70;86.70;;;;;;4959552;29;20427;-76
2022/05/25 17:29:21;;;;;;;4.70;1.10;;;18.60;86.70;;;;;;4960573;29;20644;-75
2022/05/25 17:31:47;;;;;;;1.37;0.70;;;18.60;87.40;;;;;;4962550;28;20200;-75
2022/05/25 17:34:13;;;;;;;2.03;0.90;;;18.30;87.00;;;;;;4939521;29;20170;-76
2022/05/25 17:42:11;;;;;;;2.27;0.90;;;18.00;90.10;;;;;;4940775;29;20531;-75
2022/05/25 17:44:37;;;;;;;2.47;1.40;;;17.80;91.20;;;;;;4935605;29;20887;-75
2022/05/25 17:47:04;;;;;;;1.97;0.80;;;17.60;92.30;;;;;;4935338;29;20572;-75
2022/05/25 17:49:31;;;;;;;2.10;0.80;;;17.20;93.00;;;;;;4935905;29;20180;-74
2022/05/25 17:51:57;;;;;;;2.60;0.80;;;17.00;94.90;;;;;;4935852;29;20439;-74
2022/05/25 17:54:23;;;;;;;5.63;0.80;;;16.80;96.30;;;;;;4935749;29;20474;-75
2022/05/25 17:56:50;;;;;;;3.07;1.00;;;16.80;96.30;;;;;;4934871;29;20420;-74
2022/05/25 17:59:18;;;;;;;5.67;1.00;;;16.70;96.30;;;;;;4935144;29;20423;-74
2022/05/25 18:01:44;;;;;;;2.30;0.80;;;16.60;96.30;;;;;;4935098;29;20478;-75
2022/05/25 18:04:10;;;;;;;4.27;1.20;;;16.60;96.30;;;;;;4935227;29;20427;-74
2022/05/25 18:06:36;;;;;;;3.60;1.43;;;16.80;95.60;;;;;;4934723;29;20836;-74
2022/05/25 18:09:08;;;;;;;5.70;1.47;;;16.80;96.30;;;;;;4934821;29;20423;-74
2022/05/25 18:11:40;;;;;;;3.23;1.00;;;16.80;96.30;;;;;;4931612;29;20465;-76
2022/05/25 18:14:12;;;;;;;2.03;0.97;;;16.80;96.30;;;;;;4933177;29;20471;-76
2022/05/25 18:16:38;;;;;;;8.30;2.13;;;16.60;96.30;;;;;;4933081;29;20423;-74
2022/05/25 18:19:06;;;;;;;3.70;1.77;;;16.50;96.30;;;;;;4936185;29;20474;-74
2022/05/25 18:21:31;;;;;;;3.60;1.43;;;16.40;96.30;;;;;;4932140;29;20238;-76
2022/05/25 18:23:57;;;;;;;2.40;1.30;;;16.20;96.30;;;;;;4933739;29;20459;-74
2022/05/25 18:26:23;;;;;;;3.17;1.60;;;16.10;96.30;;;;;;4925785;29;20180;-74
2022/05/25 18:28:48;;;;;;;6.57;1.10;;;16.00;96.30;;;;;;4921642;29;20215;-74
2022/05/25 18:31:14;;;;;;;2.30;1.00;;;15.90;96.30;;;;;;4925373;29;20208;-75
2022/05/25 18:33:39;;;;;;;4.60;1.07;;;15.90;96.30;;;;;;4925061;29;20191;-74
2022/05/25 18:36:24;;;;;;;1.73;1.03;;;15.80;96.30;;;;;;4905862;29;20630;-75
2022/05/25 18:38:50;;;;;;;1.87;1.10;;;15.70;96.30;;;;;;4922375;29;20183;-74
2022/05/25 18:41:16;;;;;;;5.90;1.03;;;15.50;96.30;;;;;;4921951;29;20554;-78
2022/05/25 18:43:42;;;;;;;1.67;1.10;;;15.40;96.30;;;;;;4925679;29;20638;-74
2022/05/25 18:46:08;;;;;;;6.50;0.93;;;15.30;96.30;;;;;;4931412;29;20172;-74
2022/05/25 18:48:33;;;;;;;6.30;1.00;;;15.20;96.30;;;;;;4924134;29;20417;-74
2022/05/25 18:50:59;;;;;;;5.97;0.97;;;15.10;96.30;;;;;;4922471;29;20278;-76
2022/05/25 18:53:25;;;;;;;2.63;1.20;;;15.10;96.30;;;;;;4934574;29;20188;-78
2022/05/25 18:55:52;;;;;;;2.90;0.80;;;15.20;96.30;;;;;;4937474;29;20179;-75
2022/05/25 18:58:17;;;;;;;2.73;0.83;;;15.20;96.30;;;;;;4937127;29;20175;-75
2022/05/25 19:00:43;;;;;;;1.40;0.83;;;15.20;96.30;;;;;;4919989;29;21005;-75
2022/05/25 19:03:08;;;;;;;1.33;0.70;;;15.30;96.30;;;;;;4918470;29;20264;-75
2022/05/25 19:05:34;;;;;;;2.50;1.13;;;15.30;96.30;;;;;;4937609;29;20195;-75
2022/05/25 19:08:01;;;;;;;1.80;0.93;;;15.20;96.30;;;;;;4937369;29;20175;-76
2022/05/25 19:10:26;;;;;;;1.17;0.87;;;15.00;96.30;;;;;;4920365;29;20268;-75
2022/05/25 19:12:52;;;;;;;5.33;1.10;;;14.90;96.30;;;;;;4935515;29;20550;-76
2022/05/25 19:15:18;;;;;;;1.40;0.87;;;14.80;96.30;;;;;;4937601;29;20203;-77
2022/05/25 19:17:44;;;;;;;2.77;1.20;;;14.60;96.30;;;;;;4937386;29;20180;-75